Time;durP1;ratioP1;P1;durP2;ratioP2;P2;SDS_P1;SDS_P2;PMS_P1;PMS_P2;Temp;Humidity;BMP_temperature;BMP_pressure;BME280_temperature;BME280_humidity;BME280_pressure;Samples;Min_cycle;Max_cycle;Signal;HPM_P1;HPM_P2
2022/12/01 00:00:18;;;;;;;151.10;44.93;;;0.60;99.90;;;;;;5206707;28;20205;-48
2022/12/01 00:02:48;;;;;;;128.37;40.60;;;0.80;99.90;;;;;;5224488;28;20479;-47
2022/12/01 00:05:19;;;;;;;138.23;39.70;;;0.70;99.90;;;;;;5219841;28;20261;-47
2022/12/01 00:07:50;;;;;;;148.27;42.33;;;0.60;99.90;;;;;;5221595;28;20282;-48
2022/12/01 00:10:27;;;;;;;110.33;41.77;;;0.60;99.90;;;;;;5201641;28;20245;-48
2022/12/01 00:13:03;;;;;;;131.70;39.07;;;0.60;99.90;;;;;;5216508;28;20215;-48
2022/12/01 00:15:35;;;;;;;142.93;41.10;;;0.50;99.90;;;;;;5205517;28;20436;-48
2022/12/01 00:18:06;;;;;;;116.80;41.40;;;0.50;99.90;;;;;;5213517;28;20459;-48
2022/12/01 00:20:37;;;;;;;128.93;39.80;;;0.50;99.90;;;;;;5203298;28;20467;-49
2022/12/01 00:23:07;;;;;;;115.23;41.17;;;0.40;99.90;;;;;;5206024;28;20647;-47
2022/12/01 00:25:38;;;;;;;119.80;38.53;;;0.60;99.90;;;;;;5203804;28;20214;-49
2022/12/01 00:28:08;;;;;;;137.33;43.30;;;0.50;99.90;;;;;;5217489;28;20731;-48
2022/12/01 00:30:39;;;;;;;121.47;42.20;;;0.50;99.90;;;;;;5196624;28;20226;-49
2022/12/01 00:33:10;;;;;;;120.00;40.97;;;0.50;99.90;;;;;;5202619;28;20741;-47
2022/12/01 00:35:40;;;;;;;117.27;42.13;;;0.50;99.90;;;;;;5209070;28;20179;-48
2022/12/01 00:38:11;;;;;;;144.30;44.27;;;0.40;99.90;;;;;;5205237;28;20699;-47
2022/12/01 00:40:42;;;;;;;118.20;41.27;;;0.50;99.90;;;;;;5197138;28;20305;-46
2022/12/01 00:43:12;;;;;;;116.13;42.00;;;0.50;99.90;;;;;;5215508;28;20179;-49
2022/12/01 00:45:43;;;;;;;142.70;43.97;;;0.50;99.90;;;;;;5201335;28;20326;-47
2022/12/01 00:48:14;;;;;;;120.17;40.40;;;0.50;99.90;;;;;;5198883;28;20592;-48
2022/12/01 00:50:45;;;;;;;121.37;41.83;;;0.40;99.90;;;;;;5225969;28;20204;-49
2022/12/01 00:53:15;;;;;;;127.33;43.50;;;0.40;99.90;;;;;;5203666;28;20798;-49
2022/12/01 00:55:46;;;;;;;134.43;42.30;;;0.40;99.90;;;;;;5211731;28;20182;-48
2022/12/01 00:58:17;;;;;;;131.67;44.70;;;0.50;99.90;;;;;;5196362;28;20180;-49
2022/12/01 01:00:48;;;;;;;149.10;45.10;;;0.50;99.90;;;;;;5199090;28;20200;-48
2022/12/01 01:03:19;;;;;;;135.00;44.30;;;0.50;99.90;;;;;;5222604;28;20275;-49
2022/12/01 01:05:49;;;;;;;123.80;44.23;;;0.50;99.90;;;;;;5192773;28;21041;-49
2022/12/01 01:08:20;;;;;;;142.60;44.57;;;0.60;99.90;;;;;;5206558;28;20230;-48
2022/12/01 01:10:51;;;;;;;133.67;43.17;;;0.50;99.90;;;;;;5219053;28;20227;-49
2022/12/01 01:13:21;;;;;;;132.50;43.80;;;0.60;99.90;;;;;;5212207;28;20262;-49
2022/12/01 01:16:01;;;;;;;158.83;45.37;;;0.50;99.90;;;;;;5200170;28;20180;-48
2022/12/01 01:18:32;;;;;;;134.23;43.23;;;0.60;99.90;;;;;;5220163;28;20302;-48
2022/12/01 01:21:09;;;;;;;111.73;42.20;;;0.60;99.90;;;;;;5223037;28;20484;-48
2022/12/01 01:23:40;;;;;;;122.07;39.67;;;0.60;99.90;;;;;;5206742;28;20433;-49
2022/12/01 01:26:19;;;;;;;138.43;43.40;;;0.60;99.90;;;;;;5218301;28;20439;-48
2022/12/01 01:28:51;;;;;;;132.07;42.27;;;0.50;99.90;;;;;;5212806;28;20441;-47
2022/12/01 01:31:24;;;;;;;124.77;41.30;;;0.60;99.90;;;;;;5215345;28;20475;-48
2022/12/01 01:33:55;;;;;;;130.40;43.13;;;0.60;99.90;;;;;;5218764;28;21042;-48
2022/12/01 01:36:26;;;;;;;130.50;41.40;;;0.60;99.90;;;;;;5183022;28;20911;-49
2022/12/01 01:38:57;;;;;;;147.50;42.67;;;0.60;99.90;;;;;;5197810;28;20534;-49
2022/12/01 01:41:28;;;;;;;137.00;43.97;;;0.60;99.90;;;;;;5211095;28;20211;-48
2022/12/01 01:44:01;;;;;;;137.63;44.90;;;0.60;99.90;;;;;;5217940;28;20186;-49
2022/12/01 01:46:34;;;;;;;147.60;44.30;;;0.60;99.90;;;;;;5222817;28;20191;-49
2022/12/01 01:49:10;;;;;;;129.47;45.10;;;0.60;99.90;;;;;;5224567;28;20445;-47
2022/12/01 01:51:51;;;;;;;140.27;42.27;;;0.50;99.90;;;;;;5218318;28;20466;-48
2022/12/01 01:54:30;;;;;;;129.93;45.93;;;0.60;99.90;;;;;;5201951;28;20441;-49
2022/12/01 01:57:02;;;;;;;144.30;44.40;;;0.60;99.90;;;;;;5219441;28;20939;-48
2022/12/01 01:59:38;;;;;;;133.23;44.63;;;0.60;99.90;;;;;;5205192;28;20446;-48
2022/12/01 02:02:11;;;;;;;150.03;45.43;;;0.60;99.90;;;;;;5223020;28;20485;-46
2022/12/01 02:04:47;;;;;;;140.90;42.03;;;0.60;99.90;;;;;;5224167;28;20435;-48
2022/12/01 02:07:18;;;;;;;159.23;48.30;;;0.50;99.90;;;;;;5216090;28;20430;-48
2022/12/01 02:09:49;;;;;;;138.90;46.10;;;0.50;99.90;;;;;;5206179;28;21004;-48
2022/12/01 02:12:47;;;;;;;162.53;45.27;;;0.50;99.90;;;;;;5224588;28;20435;-47
2022/12/01 02:15:32;;;;;;;155.63;46.13;;;0.60;99.90;;;;;;5218378;28;20186;-48
2022/12/01 02:18:28;;;;;;;154.90;44.10;;;0.50;99.90;;;;;;5216593;28;20429;-48
2022/12/01 02:21:18;;;;;;;140.40;45.30;;;0.50;99.90;;;;;;5214585;28;20471;-47
2022/12/01 02:24:13;;;;;;;148.10;44.93;;;0.40;99.90;;;;;;5222246;28;20925;-47
2022/12/01 02:26:48;;;;;;;153.27;42.90;;;0.40;99.90;;;;;;5193111;28;20515;-46
2022/12/01 02:29:47;;;;;;;162.80;46.57;;;0.40;99.90;;;;;;5204832;28;20472;-47
2022/12/01 02:32:47;;;;;;;150.10;43.50;;;0.40;99.90;;;;;;5218257;28;20925;-47
2022/12/01 02:35:24;;;;;;;158.80;44.10;;;0.50;99.90;;;;;;5212151;28;20833;-47
2022/12/01 02:38:10;;;;;;;156.40;44.17;;;0.50;99.90;;;;;;5205973;28;20475;-48
2022/12/01 02:41:09;;;;;;;170.87;48.13;;;0.50;99.90;;;;;;5191046;28;20469;-46
2022/12/01 02:43:47;;;;;;;192.57;50.60;;;0.40;99.90;;;;;;5210256;28;20469;-46
2022/12/01 02:46:34;;;;;;;171.33;47.57;;;0.40;99.90;;;;;;5223696;28;20462;-50
2022/12/01 02:49:14;;;;;;;160.73;48.30;;;0.50;99.90;;;;;;5215299;28;20509;-46
2022/12/01 02:51:45;;;;;;;197.83;49.83;;;0.50;99.90;;;;;;5215082;28;20469;-47
2022/12/01 02:54:16;;;;;;;183.50;50.67;;;0.40;99.90;;;;;;5219414;28;20430;-49
2022/12/01 02:56:51;;;;;;;166.50;48.47;;;0.50;99.90;;;;;;5219379;28;20860;-47
2022/12/01 02:59:22;;;;;;;175.97;48.83;;;0.50;99.90;;;;;;5196593;28;20769;-50
2022/12/01 03:02:14;;;;;;;167.57;50.30;;;0.50;99.90;;;;;;5203354;28;20453;-47
2022/12/01 03:05:08;;;;;;;190.97;51.50;;;0.50;99.90;;;;;;5223795;28;22239;-47
2022/12/01 03:07:39;;;;;;;170.07;47.87;;;0.50;99.90;;;;;;5211027;28;21019;-46
2022/12/01 03:10:34;;;;;;;162.47;45.63;;;0.50;99.90;;;;;;5209613;28;20480;-47
2022/12/01 03:13:23;;;;;;;192.50;46.37;;;0.50;99.90;;;;;;5197737;28;20663;-48
2022/12/01 03:16:02;;;;;;;153.03;46.30;;;0.50;99.90;;;;;;5211573;28;20430;-48
2022/12/01 03:18:48;;;;;;;173.40;47.13;;;0.50;99.90;;;;;;5211845;28;20436;-47
2022/12/01 03:22:02;;;;;;;164.73;47.50;;;0.50;99.90;;;;;;5226171;28;20463;-50
2022/12/01 03:24:35;;;;;;;159.40;46.97;;;0.40;99.90;;;;;;5199771;28;20475;-46
2022/12/01 03:27:09;;;;;;;188.20;48.43;;;0.40;99.90;;;;;;5209942;28;20434;-48
2022/12/01 03:29:47;;;;;;;187.20;49.23;;;0.40;99.90;;;;;;5194987;28;20956;-49
2022/12/01 03:32:24;;;;;;;176.50;49.37;;;0.30;99.90;;;;;;5211863;28;21279;-47
2022/12/01 03:35:09;;;;;;;173.00;49.33;;;0.30;99.90;;;;;;5217437;28;20430;-47
2022/12/01 03:37:46;;;;;;;177.03;48.00;;;0.30;99.90;;;;;;5219536;28;20425;-46
2022/12/01 03:40:20;;;;;;;196.07;48.87;;;0.40;99.90;;;;;;5200285;28;20458;-48
2022/12/01 03:42:58;;;;;;;172.40;47.90;;;0.30;99.90;;;;;;5219864;28;20518;-46
2022/12/01 03:45:52;;;;;;;178.67;50.87;;;0.30;99.90;;;;;;5208371;28;20532;-47
2022/12/01 03:48:24;;;;;;;168.00;47.13;;;0.30;99.90;;;;;;5199327;28;20418;-47
2022/12/01 03:51:13;;;;;;;171.80;46.33;;;0.20;99.90;;;;;;5216670;28;20555;-47
2022/12/01 03:53:54;;;;;;;157.63;46.73;;;0.20;99.90;;;;;;5199346;28;20767;-48
2022/12/01 03:56:30;;;;;;;149.43;45.37;;;0.30;99.90;;;;;;5220969;28;20817;-48
2022/12/01 03:59:03;;;;;;;139.47;44.10;;;0.20;99.90;;;;;;5208287;28;20427;-48
2022/12/01 04:01:35;;;;;;;168.90;45.17;;;0.30;99.90;;;;;;5216072;28;20477;-47
2022/12/01 04:04:11;;;;;;;144.67;43.13;;;0.20;99.90;;;;;;5208586;28;20542;-49
2022/12/01 04:06:45;;;;;;;143.10;43.07;;;0.30;99.90;;;;;;5203376;28;20447;-49
2022/12/01 04:09:16;;;;;;;139.90;42.10;;;0.20;99.90;;;;;;5205934;28;20460;-47
2022/12/01 04:14:36;;;;;;;135.47;40.73;;;0.20;99.90;;;;;;5210255;28;20206;-47
2022/12/01 04:17:07;;;;;;;143.43;42.57;;;0.20;99.90;;;;;;5205576;28;20437;-52
2022/12/01 04:19:37;;;;;;;139.87;45.43;;;0.10;99.90;;;;;;5207503;28;20178;-47
2022/12/01 04:22:08;;;;;;;153.60;46.17;;;0.10;99.90;;;;;;5214764;28;20837;-47
2022/12/01 04:24:39;;;;;;;141.17;43.50;;;0.20;99.90;;;;;;5223529;28;20234;-48
2022/12/01 04:27:10;;;;;;;151.63;48.30;;;0.10;99.90;;;;;;5203112;28;20278;-48
2022/12/01 04:29:40;;;;;;;155.13;47.17;;;0.10;99.90;;;;;;5214109;28;20663;-49
2022/12/01 04:32:12;;;;;;;170.93;48.70;;;0.20;99.90;;;;;;5217484;28;20224;-47
2022/12/01 04:34:43;;;;;;;165.13;46.80;;;0.00;99.90;;;;;;5205944;28;20262;-47
2022/12/01 04:37:13;;;;;;;155.07;47.43;;;0.00;99.90;;;;;;5214169;28;20632;-47
2022/12/01 04:39:44;;;;;;;164.60;46.87;;;0.10;99.90;;;;;;5220767;28;20191;-47
2022/12/01 04:42:15;;;;;;;142.00;43.20;;;0.10;99.90;;;;;;5205000;28;20196;-47
2022/12/01 04:44:45;;;;;;;152.13;48.03;;;0.10;99.90;;;;;;5216414;28;20805;-47
2022/12/01 04:47:16;;;;;;;181.13;47.90;;;0.00;99.90;;;;;;5214289;28;20184;-47
2022/12/01 04:49:47;;;;;;;167.27;46.33;;;0.00;99.90;;;;;;5197734;28;20179;-47
2022/12/01 04:52:17;;;;;;;159.93;42.83;;;0.10;99.90;;;;;;5207789;28;20187;-50
2022/12/01 04:54:48;;;;;;;156.50;48.73;;;0.10;99.90;;;;;;5217741;28;20177;-47
2022/12/01 04:57:19;;;;;;;161.00;47.10;;;0.10;99.90;;;;;;5200667;28;20602;-50
2022/12/01 04:59:49;;;;;;;143.83;45.70;;;0.10;99.90;;;;;;5209737;28;20211;-47
2022/12/01 05:02:20;;;;;;;143.60;47.93;;;0.10;99.90;;;;;;5218948;28;20211;-48
2022/12/01 05:04:51;;;;;;;149.20;49.50;;;0.20;99.90;;;;;;5206478;28;20187;-49
2022/12/01 05:07:21;;;;;;;133.30;45.60;;;0.00;99.90;;;;;;5216704;28;20551;-47
2022/12/01 05:09:53;;;;;;;134.53;44.60;;;0.00;99.90;;;;;;5212167;28;20227;-48
2022/12/01 05:12:24;;;;;;;131.37;44.33;;;0.00;99.90;;;;;;5215890;28;20773;-48
2022/12/01 05:14:55;;;;;;;146.53;44.13;;;0.00;99.90;;;;;;5202117;28;20528;-47
2022/12/01 05:17:25;;;;;;;129.80;45.10;;;0.00;99.90;;;;;;5219445;28;20212;-46
2022/12/01 05:22:45;;;;;;;145.67;45.37;;;0.10;99.90;;;;;;5209286;28;20187;-50
2022/12/01 05:25:17;;;;;;;146.97;45.13;;;0.10;99.90;;;;;;5213304;28;20438;-46
2022/12/01 05:27:47;;;;;;;137.83;45.87;;;0.10;99.90;;;;;;5210432;28;20196;-49
2022/12/01 05:30:18;;;;;;;138.80;47.90;;;0.10;99.90;;;;;;5212235;28;20981;-47
2022/12/01 05:32:49;;;;;;;141.77;48.87;;;0.10;99.90;;;;;;5210144;28;20184;-49
2022/12/01 05:35:19;;;;;;;127.07;45.73;;;0.20;99.90;;;;;;5213240;28;20555;-48
2022/12/01 05:37:50;;;;;;;137.17;46.33;;;0.20;99.90;;;;;;5194851;28;20211;-47
2022/12/01 05:40:21;;;;;;;119.67;45.67;;;0.20;99.90;;;;;;5197796;28;20293;-49
2022/12/01 05:42:51;;;;;;;125.57;44.60;;;0.10;99.90;;;;;;5207190;28;20233;-46
2022/12/01 05:45:22;;;;;;;133.97;47.67;;;0.10;99.90;;;;;;5189434;28;20194;-47
2022/12/01 05:47:54;;;;;;;136.63;45.57;;;0.10;99.90;;;;;;5209500;28;20226;-47
2022/12/01 05:50:28;;;;;;;126.63;46.03;;;0.00;99.90;;;;;;5205739;28;20214;-51
2022/12/01 05:52:59;;;;;;;133.87;44.63;;;0.00;99.90;;;;;;5208982;28;20812;-47
2022/12/01 05:55:31;;;;;;;114.47;43.83;;;0.00;99.90;;;;;;5204069;28;20445;-47
2022/12/01 05:58:02;;;;;;;136.03;44.03;;;0.00;99.90;;;;;;5226557;28;20199;-48
2022/12/01 06:00:33;;;;;;;138.33;43.90;;;0.00;99.90;;;;;;5212071;28;21027;-47
2022/12/01 06:03:04;;;;;;;118.93;44.30;;;0.00;99.90;;;;;;5195295;28;20823;-48
2022/12/01 06:05:34;;;;;;;128.33;45.50;;;0.00;99.90;;;;;;5208779;28;20447;-47
2022/12/01 06:08:05;;;;;;;113.07;41.30;;;-0.10;99.90;;;;;;5219104;28;20219;-46
2022/12/01 06:10:36;;;;;;;116.50;45.03;;;0.10;99.90;;;;;;5207145;28;20223;-49
2022/12/01 06:13:07;;;;;;;110.63;42.73;;;0.10;99.90;;;;;;5213926;28;20431;-48
2022/12/01 06:15:38;;;;;;;129.77;45.17;;;0.00;99.90;;;;;;5226186;28;20246;-50
2022/12/01 06:18:08;;;;;;;130.67;45.37;;;0.00;99.90;;;;;;5223018;28;20293;-48
2022/12/01 06:20:39;;;;;;;132.60;45.27;;;0.00;99.90;;;;;;5208759;28;20218;-48
2022/12/01 06:23:10;;;;;;;120.10;43.10;;;0.10;99.90;;;;;;5215101;28;20187;-48
2022/12/01 06:25:40;;;;;;;128.70;43.20;;;0.00;99.90;;;;;;5187915;28;20648;-48
2022/12/01 06:28:11;;;;;;;133.63;49.30;;;0.00;99.90;;;;;;5204050;28;20210;-47
2022/12/01 06:30:42;;;;;;;140.80;48.17;;;0.00;99.90;;;;;;5230662;28;20229;-48
2022/12/01 06:33:12;;;;;;;125.67;47.83;;;0.00;99.90;;;;;;5213545;28;20187;-47
2022/12/01 06:35:43;;;;;;;131.90;45.93;;;0.20;99.90;;;;;;5210303;28;20192;-47
2022/12/01 06:38:14;;;;;;;134.50;47.10;;;0.00;99.90;;;;;;5205582;28;20182;-47
2022/12/01 06:40:44;;;;;;;124.67;45.63;;;0.10;99.90;;;;;;5205000;28;20203;-48
2022/12/01 06:43:15;;;;;;;129.60;48.83;;;0.10;99.90;;;;;;5213755;28;20183;-48
2022/12/01 06:45:46;;;;;;;129.50;49.60;;;0.00;99.90;;;;;;5213943;28;20179;-48
2022/12/01 06:48:16;;;;;;;127.90;46.47;;;0.00;99.90;;;;;;5220295;28;20183;-49
2022/12/01 06:50:47;;;;;;;124.53;48.97;;;0.20;99.90;;;;;;5222714;28;20219;-48
2022/12/01 06:53:18;;;;;;;120.80;46.40;;;0.10;99.90;;;;;;5239490;28;20243;-49
2022/12/01 06:55:48;;;;;;;128.60;45.93;;;0.20;99.90;;;;;;5227488;28;20175;-51
2022/12/01 06:58:19;;;;;;;137.70;48.83;;;0.20;99.90;;;;;;5228325;28;20179;-50
2022/12/01 07:00:49;;;;;;;147.47;48.67;;;0.10;99.90;;;;;;5230262;28;20203;-48
2022/12/01 07:03:20;;;;;;;135.03;48.20;;;0.20;99.90;;;;;;5238904;28;20190;-49
2022/12/01 07:05:58;;;;;;;154.63;50.43;;;0.10;99.90;;;;;;5226156;28;20194;-49
2022/12/01 07:08:30;;;;;;;142.67;49.00;;;0.10;99.90;;;;;;5230476;28;20183;-47
2022/12/01 07:11:11;;;;;;;149.07;50.27;;;0.10;99.90;;;;;;5221660;28;20808;-50
2022/12/01 07:13:45;;;;;;;135.47;48.23;;;0.10;99.90;;;;;;5223490;28;20430;-47
2022/12/01 07:16:16;;;;;;;153.83;52.67;;;0.20;99.90;;;;;;5230893;28;20483;-48
2022/12/01 07:18:47;;;;;;;156.33;50.73;;;0.20;99.90;;;;;;5214620;28;21066;-48
2022/12/01 07:21:17;;;;;;;143.10;50.37;;;0.30;99.90;;;;;;5224997;28;20210;-48
2022/12/01 07:23:48;;;;;;;160.87;53.17;;;0.30;99.90;;;;;;5221121;28;20210;-49
2022/12/01 07:26:19;;;;;;;149.63;54.70;;;0.40;99.90;;;;;;5211943;28;20183;-49
2022/12/01 07:28:49;;;;;;;171.13;53.87;;;0.20;99.90;;;;;;5210036;28;20192;-49
2022/12/01 07:31:20;;;;;;;178.87;58.03;;;0.20;99.90;;;;;;5193607;28;20219;-48
2022/12/01 07:33:51;;;;;;;173.87;54.90;;;0.20;99.90;;;;;;5231733;28;20189;-49
2022/12/01 07:36:21;;;;;;;153.60;55.00;;;0.20;99.90;;;;;;5208013;28;20648;-50
2022/12/01 07:38:52;;;;;;;192.50;60.03;;;0.20;99.90;;;;;;5222580;28;20183;-48
2022/12/01 07:41:23;;;;;;;182.67;58.17;;;0.30;99.90;;;;;;5200633;28;20245;-51
2022/12/01 07:43:54;;;;;;;167.17;56.43;;;0.30;99.90;;;;;;5225669;28;20187;-52
2022/12/01 07:46:26;;;;;;;177.27;60.10;;;0.30;99.90;;;;;;5216890;28;20271;-50
2022/12/01 07:48:58;;;;;;;178.57;58.43;;;0.30;99.90;;;;;;5213111;28;20437;-49
2022/12/01 07:51:29;;;;;;;183.10;57.90;;;0.20;99.90;;;;;;5218119;28;20465;-48
2022/12/01 07:54:05;;;;;;;197.03;59.90;;;0.20;99.90;;;;;;5204237;28;20452;-50
2022/12/01 07:56:36;;;;;;;193.03;63.40;;;0.30;99.90;;;;;;5200787;28;20171;-46
2022/12/01 07:59:07;;;;;;;204.10;62.20;;;0.30;99.90;;;;;;5203174;28;20436;-48
2022/12/01 08:01:38;;;;;;;189.27;62.80;;;0.40;99.90;;;;;;5209152;28;20454;-48
2022/12/01 08:04:08;;;;;;;181.70;58.67;;;0.30;99.90;;;;;;5190353;28;20449;-49
2022/12/01 08:06:39;;;;;;;199.87;60.97;;;0.40;99.90;;;;;;5187755;28;20287;-49
2022/12/01 08:09:10;;;;;;;189.30;59.87;;;0.30;99.90;;;;;;5202110;28;20188;-47
2022/12/01 08:11:40;;;;;;;181.13;58.53;;;0.40;99.90;;;;;;5207116;28;20344;-51
2022/12/01 08:14:11;;;;;;;184.60;58.23;;;0.30;99.90;;;;;;5194581;28;20182;-49
2022/12/01 08:16:42;;;;;;;189.73;62.13;;;0.30;99.90;;;;;;5207699;28;20537;-48
2022/12/01 08:19:12;;;;;;;178.03;58.97;;;0.40;99.90;;;;;;5217295;28;20748;-50
2022/12/01 08:21:43;;;;;;;186.30;59.50;;;0.30;99.90;;;;;;5245229;22;20248;-51
2022/12/01 08:24:13;;;;;;;188.47;59.53;;;0.40;99.90;;;;;;5231744;28;20190;-52
2022/12/01 08:26:44;;;;;;;195.93;62.87;;;0.40;99.90;;;;;;5241039;28;20174;-52
2022/12/01 08:29:15;;;;;;;162.23;55.87;;;0.40;99.90;;;;;;5247655;28;20182;-50
2022/12/01 08:31:46;;;;;;;184.50;59.43;;;0.40;99.90;;;;;;5232104;28;20232;-51
2022/12/01 08:34:16;;;;;;;175.07;58.67;;;0.40;99.90;;;;;;5232292;28;20172;-51
2022/12/01 08:36:47;;;;;;;194.43;61.60;;;0.30;99.90;;;;;;5242770;28;20438;-50
2022/12/01 08:39:18;;;;;;;179.00;60.03;;;0.30;99.90;;;;;;5224771;28;20220;-51
2022/12/01 08:41:48;;;;;;;191.63;58.97;;;0.40;99.90;;;;;;5246797;28;20642;-51
2022/12/01 08:44:19;;;;;;;209.57;61.57;;;0.40;99.90;;;;;;5249486;28;20593;-53
2022/12/01 08:46:49;;;;;;;188.97;61.57;;;0.40;99.90;;;;;;5246286;28;20268;-51
2022/12/01 08:49:21;;;;;;;191.50;62.20;;;0.40;99.90;;;;;;5247128;28;20228;-53
2022/12/01 08:51:52;;;;;;;200.37;61.43;;;0.40;99.90;;;;;;5232073;28;20217;-54
2022/12/01 08:54:22;;;;;;;195.37;63.80;;;0.30;99.90;;;;;;5237264;28;20794;-51
2022/12/01 08:56:53;;;;;;;181.73;60.87;;;0.40;99.90;;;;;;5232253;28;20213;-52
2022/12/01 08:59:24;;;;;;;209.83;63.63;;;0.50;99.90;;;;;;5229601;28;20182;-52
2022/12/01 09:01:56;;;;;;;204.40;63.90;;;0.50;99.90;;;;;;5239597;28;20273;-53
2022/12/01 09:04:27;;;;;;;206.43;66.00;;;0.50;99.90;;;;;;5223840;28;20260;-50
2022/12/01 09:06:57;;;;;;;182.20;64.57;;;0.50;99.90;;;;;;5230438;28;20450;-50
2022/12/01 09:09:28;;;;;;;220.07;65.60;;;0.50;99.90;;;;;;5232761;28;20436;-51
2022/12/01 09:11:58;;;;;;;209.60;64.47;;;0.50;99.90;;;;;;5223039;28;20210;-54
2022/12/01 09:14:29;;;;;;;220.83;62.83;;;0.50;99.90;;;;;;5244053;28;20181;-50
2022/12/01 09:17:00;;;;;;;187.80;61.07;;;0.50;99.90;;;;;;5217563;28;20833;-51
2022/12/01 09:19:30;;;;;;;166.17;56.33;;;0.60;99.90;;;;;;5229275;28;20263;-50
2022/12/01 09:22:01;;;;;;;178.90;58.53;;;0.50;99.90;;;;;;5211332;28;20686;-51
2022/12/01 09:24:31;;;;;;;185.47;55.53;;;0.50;99.90;;;;;;5218084;28;22082;-51
2022/12/01 09:27:02;;;;;;;190.57;57.80;;;0.60;99.90;;;;;;5243658;28;20669;-51
2022/12/01 09:29:33;;;;;;;177.60;58.33;;;0.60;99.90;;;;;;5217460;28;20185;-51
2022/12/01 09:32:04;;;;;;;146.43;53.03;;;0.50;99.90;;;;;;5234054;28;20225;-50
2022/12/01 09:34:34;;;;;;;175.83;56.57;;;0.60;99.90;;;;;;5233843;28;20258;-49
2022/12/01 09:37:06;;;;;;;173.90;57.63;;;0.60;99.90;;;;;;5238926;28;20639;-51
2022/12/01 09:39:37;;;;;;;176.93;59.67;;;0.50;99.90;;;;;;5220394;28;20208;-51
2022/12/01 09:42:13;;;;;;;169.40;55.47;;;0.40;99.90;;;;;;5246200;28;20485;-50
2022/12/01 09:44:54;;;;;;;187.07;57.90;;;0.50;99.90;;;;;;5242397;28;20189;-51
2022/12/01 09:47:32;;;;;;;172.57;57.70;;;0.50;99.90;;;;;;5239463;28;20435;-51
2022/12/01 09:50:05;;;;;;;160.43;54.77;;;0.60;99.90;;;;;;5227227;28;20442;-50
2022/12/01 09:52:46;;;;;;;148.67;50.60;;;0.60;99.90;;;;;;5239389;28;20459;-51
2022/12/01 09:55:19;;;;;;;159.03;53.63;;;0.60;99.90;;;;;;5234315;28;20551;-51
2022/12/01 09:57:56;;;;;;;155.63;52.10;;;0.60;99.90;;;;;;5235421;28;20508;-49
2022/12/01 10:00:31;;;;;;;157.87;52.47;;;0.60;99.90;;;;;;5238493;28;20428;-50
2022/12/01 10:03:13;;;;;;;156.87;53.70;;;0.60;99.90;;;;;;5239895;28;20440;-52
2022/12/01 10:05:56;;;;;;;147.80;54.13;;;0.50;99.90;;;;;;5237412;28;20433;-53
2022/12/01 10:08:33;;;;;;;154.93;49.40;;;0.60;99.90;;;;;;5237743;28;20441;-51
2022/12/01 10:11:26;;;;;;;143.30;53.70;;;0.70;99.90;;;;;;5244542;28;20562;-51
2022/12/01 10:13:58;;;;;;;148.50;50.50;;;0.60;99.90;;;;;;5211688;28;20448;-51
2022/12/01 10:16:36;;;;;;;132.60;50.80;;;0.60;99.90;;;;;;5225300;28;20437;-55
2022/12/01 10:19:14;;;;;;;141.23;50.80;;;0.70;99.90;;;;;;5245970;28;20446;-52
2022/12/01 10:22:13;;;;;;;149.40;52.10;;;0.70;99.90;;;;;;5225093;28;21009;-51
2022/12/01 10:24:54;;;;;;;141.50;49.93;;;0.70;99.90;;;;;;5240064;28;20464;-51
2022/12/01 10:27:46;;;;;;;140.07;50.00;;;0.70;99.90;;;;;;5238779;28;20457;-50
2022/12/01 10:30:19;;;;;;;146.63;53.40;;;0.70;99.90;;;;;;5217882;28;20463;-50
2022/12/01 10:33:21;;;;;;;137.60;50.00;;;0.60;99.90;;;;;;5220683;28;20522;-50
2022/12/01 10:35:52;;;;;;;151.37;50.83;;;0.70;99.90;;;;;;5229038;28;20497;-52
2022/12/01 10:38:31;;;;;;;142.03;52.97;;;0.70;99.90;;;;;;5218235;28;20974;-51
2022/12/01 10:41:04;;;;;;;125.37;49.80;;;0.70;99.90;;;;;;5245585;28;21125;-50
2022/12/01 10:43:43;;;;;;;148.70;49.10;;;0.80;99.90;;;;;;5244588;28;20437;-51
2022/12/01 10:46:24;;;;;;;118.10;46.90;;;0.80;99.90;;;;;;5254531;28;20439;-51
2022/12/01 10:48:58;;;;;;;125.97;48.20;;;0.70;99.90;;;;;;5226764;28;20817;-53
2022/12/01 10:51:28;;;;;;;127.37;47.80;;;0.80;99.90;;;;;;5231329;28;20467;-51
2022/12/01 10:54:07;;;;;;;119.63;47.47;;;0.90;99.90;;;;;;5243224;28;20505;-50
2022/12/01 10:56:44;;;;;;;125.50;45.73;;;0.90;99.90;;;;;;5228143;28;20518;-51
2022/12/01 10:59:28;;;;;;;133.17;48.80;;;0.90;99.90;;;;;;5240189;28;20522;-51
2022/12/01 11:02:00;;;;;;;126.33;49.67;;;0.90;99.90;;;;;;5240659;28;20490;-50
2022/12/01 11:04:31;;;;;;;133.53;50.80;;;0.90;99.90;;;;;;5253746;28;20443;-50
2022/12/01 11:07:03;;;;;;;125.10;48.17;;;0.80;99.90;;;;;;5226908;28;20439;-52
2022/12/01 11:09:33;;;;;;;128.23;47.43;;;0.90;99.90;;;;;;5241193;28;20178;-51
2022/12/01 11:12:04;;;;;;;125.50;47.60;;;0.80;99.90;;;;;;5221274;28;20905;-51
2022/12/01 11:14:53;;;;;;;119.93;44.80;;;0.80;99.90;;;;;;5214923;28;20174;-49
2022/12/01 11:18:16;;;;;;;122.23;49.40;;;0.80;99.90;;;;;;5233172;28;20234;-50
2022/12/01 11:20:47;;;;;;;128.20;45.17;;;0.90;99.90;;;;;;5189759;28;20468;-49
2022/12/01 11:23:19;;;;;;;113.93;45.13;;;0.80;99.90;;;;;;5228039;28;20436;-50
2022/12/01 11:26:11;;;;;;;113.33;46.90;;;0.90;99.90;;;;;;5227678;28;20476;-51
2022/12/01 11:29:04;;;;;;;117.70;46.93;;;1.00;99.90;;;;;;5243048;28;20502;-50
2022/12/01 11:31:41;;;;;;;116.90;45.40;;;1.00;99.90;;;;;;5242155;28;21003;-51
2022/12/01 11:34:19;;;;;;;121.60;48.20;;;0.80;99.90;;;;;;5229168;28;20486;-50
2022/12/01 11:37:21;;;;;;;138.07;50.40;;;1.00;99.90;;;;;;5230927;28;20462;-49
2022/12/01 11:39:52;;;;;;;135.83;46.03;;;0.90;99.90;;;;;;5245385;28;20504;-49
2022/12/01 11:42:26;;;;;;;122.77;47.00;;;0.90;99.90;;;;;;5227058;28;20537;-52
2022/12/01 11:45:07;;;;;;;107.13;45.87;;;1.00;99.90;;;;;;5245244;28;20436;-51
2022/12/01 11:48:01;;;;;;;113.47;47.20;;;1.00;99.90;;;;;;5246678;28;20434;-51
2022/12/01 11:50:39;;;;;;;102.20;44.33;;;1.00;99.90;;;;;;5248480;28;20467;-51
2022/12/01 11:53:34;;;;;;;95.23;42.40;;;1.10;99.90;;;;;;5226579;28;20553;-51
2022/12/01 11:56:28;;;;;;;95.30;41.07;;;1.00;99.90;;;;;;5201941;28;20556;-51
2022/12/01 11:59:07;;;;;;;97.23;41.50;;;1.20;99.90;;;;;;5233771;28;20439;-51
2022/12/01 12:02:27;;;;;;;105.07;41.00;;;1.00;99.90;;;;;;5250013;28;20463;-50
2022/12/01 12:05:00;;;;;;;101.10;40.60;;;1.10;99.90;;;;;;5224425;28;20574;-51
2022/12/01 12:08:07;;;;;;;109.40;43.10;;;1.10;99.90;;;;;;5233576;28;20947;-51
2022/12/01 12:11:24;;;;;;;94.00;41.63;;;1.10;99.90;;;;;;5121275;28;20467;-52
2022/12/01 12:13:58;;;;;;;97.83;40.90;;;1.10;99.90;;;;;;5227693;28;20449;-50
2022/12/01 12:16:57;;;;;;;106.63;41.23;;;1.20;99.90;;;;;;5218526;28;20443;-50
2022/12/01 12:20:03;;;;;;;102.30;42.17;;;1.10;99.90;;;;;;5242911;28;20444;-50
2022/12/01 12:23:12;;;;;;;87.13;37.97;;;1.10;99.90;;;;;;5244612;28;20509;-54
2022/12/01 12:26:07;;;;;;;101.00;40.60;;;1.10;99.90;;;;;;5210747;28;20440;-51
2022/12/01 12:29:00;;;;;;;97.30;38.80;;;1.10;99.90;;;;;;5235747;28;21000;-51
2022/12/01 12:31:45;;;;;;;94.83;40.63;;;1.10;99.90;;;;;;5242294;28;20470;-53
2022/12/01 12:34:39;;;;;;;93.07;40.13;;;1.10;99.90;;;;;;5222859;28;20459;-51
2022/12/01 12:37:45;;;;;;;87.43;38.40;;;1.10;99.90;;;;;;5228642;28;20442;-54
2022/12/01 12:40:41;;;;;;;103.53;40.70;;;1.10;99.90;;;;;;5226496;28;20434;-51
2022/12/01 12:43:30;;;;;;;107.50;40.27;;;1.00;99.90;;;;;;5239514;28;20478;-51
2022/12/01 12:46:40;;;;;;;101.53;40.10;;;0.90;99.90;;;;;;5230059;28;20441;-53
2022/12/01 12:49:17;;;;;;;93.87;40.00;;;0.90;99.90;;;;;;5185203;28;20441;-52
2022/12/01 12:52:20;;;;;;;93.47;39.13;;;1.00;99.90;;;;;;5219983;28;20483;-53
2022/12/01 12:55:01;;;;;;;87.10;39.47;;;1.00;99.90;;;;;;5235802;28;20431;-51
2022/12/01 12:57:38;;;;;;;90.10;39.50;;;1.00;99.90;;;;;;5229618;28;20436;-50
2022/12/01 13:00:22;;;;;;;88.07;37.30;;;1.00;99.90;;;;;;5219421;28;20446;-50
2022/12/01 13:03:03;;;;;;;88.67;37.47;;;1.00;99.90;;;;;;5246393;28;20422;-51
2022/12/01 13:05:48;;;;;;;85.83;36.83;;;1.00;99.90;;;;;;5245892;28;20834;-52
2022/12/01 13:08:26;;;;;;;78.30;37.30;;;1.00;99.90;;;;;;5224873;28;20438;-53
2022/12/01 13:11:14;;;;;;;84.43;36.70;;;0.90;99.90;;;;;;5242449;28;20992;-51
2022/12/01 13:14:11;;;;;;;79.90;34.77;;;0.90;99.90;;;;;;5214746;28;20433;-51
2022/12/01 13:16:47;;;;;;;87.97;37.50;;;0.80;99.90;;;;;;5225842;28;20757;-52
2022/12/01 13:19:25;;;;;;;96.17;40.20;;;0.90;99.90;;;;;;5240012;28;20950;-51